Time;durP1;ratioP1;P1;durP2;ratioP2;P2;SDS_P1;SDS_P2;PMS_P1;PMS_P2;Temp;Humidity;BMP_temperature;BMP_pressure;BME280_temperature;BME280_humidity;BME280_pressure;Samples;Min_cycle;Max_cycle;Signal;HPM_P1;HPM_P2
2024/03/15 00:02:05;;;;;;;82.40;43.10;;;;;;;6.85;100.00;100286.63;5060942;28;20037;-75
2024/03/15 00:04:31;;;;;;;83.57;43.88;;;;;;;6.83;100.00;100282.31;5046934;28;20024;-75
2024/03/15 00:06:57;;;;;;;79.28;43.33;;;;;;;6.77;100.00;100268.88;5063637;28;20096;-76
2024/03/15 00:09:22;;;;;;;81.90;44.67;;;;;;;6.87;100.00;100288.13;5064940;28;20059;-75
2024/03/15 00:11:48;;;;;;;81.22;44.83;;;;;;;6.84;100.00;100275.13;5051085;28;20040;-75
2024/03/15 00:14:13;;;;;;;81.00;46.92;;;;;;;6.90;100.00;100287.75;5066842;28;20047;-75
2024/03/15 00:16:39;;;;;;;85.95;45.53;;;;;;;6.90;100.00;100276.22;5067471;28;20037;-75
2024/03/15 00:19:05;;;;;;;83.45;47.22;;;;;;;6.83;100.00;100262.78;5066248;28;20021;-77
2024/03/15 00:21:32;;;;;;;80.45;44.08;;;;;;;6.89;100.00;100266.50;5065118;28;20029;-76
2024/03/15 00:23:57;;;;;;;90.07;50.47;;;;;;;6.85;100.00;100268.75;5030880;28;20039;-74
2024/03/15 00:26:23;;;;;;;96.65;50.28;;;;;;;6.81;100.00;100270.13;5065644;28;20088;-74
2024/03/15 00:28:48;;;;;;;94.88;51.05;;;;;;;6.74;100.00;100269.22;5064867;28;20033;-76
2024/03/15 00:31:13;;;;;;;94.15;50.88;;;;;;;6.65;100.00;100265.00;5049007;28;20071;-74
2024/03/15 00:33:40;;;;;;;91.65;52.05;;;;;;;6.44;100.00;100245.22;5066174;28;20047;-74
2024/03/15 00:36:06;;;;;;;98.57;53.78;;;;;;;6.35;100.00;100236.47;5064890;28;20037;-76
2024/03/15 00:38:31;;;;;;;98.20;55.38;;;;;;;6.44;100.00;100263.94;5065104;28;20013;-74
2024/03/15 00:40:57;;;;;;;111.03;55.85;;;;;;;6.40;100.00;100264.50;5065372;28;20052;-77
2024/03/15 00:43:22;;;;;;;99.55;56.33;;;;;;;6.36;100.00;100264.03;5066111;28;20025;-74
2024/03/15 00:45:48;;;;;;;114.05;58.67;;;;;;;6.34;100.00;100256.19;5048511;28;20029;-75
2024/03/15 00:48:15;;;;;;;101.97;57.88;;;;;;;6.34;100.00;100258.03;5048663;28;20512;-74
2024/03/15 00:50:41;;;;;;;119.25;61.65;;;;;;;6.30;100.00;100252.22;5066145;28;20033;-74
2024/03/15 00:53:06;;;;;;;118.85;61.92;;;;;;;6.15;100.00;100230.03;5065764;28;20029;-74
2024/03/15 00:55:33;;;;;;;112.47;59.45;;;;;;;6.16;100.00;100222.84;5046193;28;20032;-74
2024/03/15 00:57:59;;;;;;;115.35;63.97;;;;;;;6.28;100.00;100245.41;5060203;28;20017;-74
2024/03/15 01:00:25;;;;;;;119.22;64.03;;;;;;;6.27;100.00;100247.25;5041354;28;20075;-74
2024/03/15 01:02:51;;;;;;;122.80;63.65;;;;;;;6.25;100.00;100238.59;5023377;28;20056;-75
2024/03/15 01:05:16;;;;;;;121.38;66.32;;;;;;;6.28;100.00;100246.22;5061108;28;20033;-75
2024/03/15 01:07:42;;;;;;;126.78;65.60;;;;;;;6.30;100.00;100246.06;5063057;28;20061;-75
2024/03/15 01:10:08;;;;;;;124.72;66.13;;;;;;;6.31;100.00;100247.72;5063845;28;20067;-74
2024/03/15 01:12:34;;;;;;;119.72;65.75;;;;;;;6.33;100.00;100241.19;5047912;28;20021;-75
2024/03/15 01:14:59;;;;;;;121.68;67.32;;;;;;;6.33;100.00;100233.16;5064566;28;20033;-75
2024/03/15 01:17:25;;;;;;;140.45;69.47;;;;;;;6.19;100.00;100209.97;5049801;28;20504;-75
2024/03/15 01:19:50;;;;;;;123.50;66.78;;;;;;;6.31;100.00;100226.34;5060777;28;20060;-75
2024/03/15 01:22:15;;;;;;;139.88;70.40;;;;;;;6.38;100.00;100234.44;5060591;28;20064;-75
2024/03/15 01:24:41;;;;;;;128.82;67.68;;;;;;;6.42;100.00;100239.22;5041735;28;20026;-75
2024/03/15 01:27:07;;;;;;;120.72;66.55;;;;;;;6.51;100.00;100238.09;5039905;28;20037;-75
2024/03/15 01:29:32;;;;;;;133.88;67.88;;;;;;;6.59;100.00;100240.69;5039663;28;20025;-76
2024/03/15 01:31:58;;;;;;;136.65;69.63;;;;;;;6.65;100.00;100240.94;5063824;28;20041;-75
2024/03/15 01:34:23;;;;;;;128.48;65.18;;;;;;;6.66;100.00;100231.94;5068366;28;20085;-75
2024/03/15 01:36:49;;;;;;;136.77;70.28;;;;;;;6.66;100.00;100226.59;5063491;28;20030;-75
2024/03/15 01:39:15;;;;;;;120.68;66.38;;;;;;;6.70;100.00;100233.19;5039862;28;20025;-75
2024/03/15 01:41:42;;;;;;;132.73;68.00;;;;;;;6.74;100.00;100229.13;5053067;28;20116;-75
2024/03/15 01:44:07;;;;;;;128.52;67.53;;;;;;;6.75;100.00;100225.44;5053430;28;20025;-75
2024/03/15 01:46:35;;;;;;;120.40;62.22;;;;;;;6.57;100.00;100202.63;5037783;28;20112;-75
2024/03/15 01:49:01;;;;;;;132.73;69.45;;;;;;;6.75;100.00;100222.75;5020427;28;20033;-75
2024/03/15 01:51:30;;;;;;;122.90;65.78;;;;;;;6.76;100.00;100230.59;5019489;28;20045;-74
2024/03/15 01:53:56;;;;;;;128.45;66.20;;;;;;;6.65;100.00;100206.19;5052143;28;20099;-76
2024/03/15 01:56:22;;;;;;;117.32;65.15;;;;;;;6.78;100.00;100223.19;5037241;28;20029;-76
2024/03/15 01:58:49;;;;;;;124.25;65.80;;;;;;;6.81;100.00;100224.69;5036831;28;20033;-75
2024/03/15 02:01:14;;;;;;;124.97;65.85;;;;;;;6.61;100.00;100192.38;5037477;28;20041;-75
2024/03/15 02:03:40;;;;;;;123.55;64.93;;;;;;;6.73;100.00;100204.25;5036259;28;20053;-76
2024/03/15 02:06:08;;;;;;;121.22;65.32;;;;;;;6.80;100.00;100207.81;5018945;28;20100;-75
2024/03/15 02:08:34;;;;;;;122.43;63.88;;;;;;;6.63;100.00;100185.00;5051660;28;20025;-75
2024/03/15 02:10:59;;;;;;;124.10;65.20;;;;;;;6.79;100.00;100211.50;5054723;28;20040;-75
2024/03/15 02:13:25;;;;;;;113.88;61.15;;;;;;;6.78;100.00;100214.34;5042927;28;20517;-75
2024/03/15 02:15:51;;;;;;;118.03;61.97;;;;;;;6.76;100.00;100203.88;5044323;28;20111;-75
2024/03/15 02:18:18;;;;;;;122.60;63.30;;;;;;;6.80;100.00;100215.00;5043478;28;20026;-75
2024/03/15 02:20:43;;;;;;;112.70;58.97;;;;;;;6.75;100.00;100201.38;5060530;28;20033;-75
2024/03/15 02:23:09;;;;;;;125.43;63.20;;;;;;;6.76;100.00;100205.72;5061171;28;20040;-75
2024/03/15 02:25:34;;;;;;;120.30;60.30;;;;;;;6.73;100.00;100206.91;5044058;28;20046;-75
2024/03/15 02:28:00;;;;;;;120.68;61.50;;;;;;;6.68;100.00;100184.44;5045029;28;20029;-75
2024/03/15 02:30:25;;;;;;;117.35;59.13;;;;;;;6.77;100.00;100196.66;5043555;28;20143;-75
2024/03/15 02:32:51;;;;;;;112.13;60.35;;;;;;;6.79;100.00;100194.66;5059652;28;20030;-75
2024/03/15 02:35:17;;;;;;;116.82;62.97;;;;;;;6.80;100.00;100193.63;5059701;28;20079;-75
2024/03/15 02:37:42;;;;;;;122.65;62.95;;;;;;;6.80;100.00;100188.28;5042779;28;20034;-75
2024/03/15 02:40:09;;;;;;;123.07;64.18;;;;;;;6.84;100.00;100192.22;5042783;28;20044;-76
2024/03/15 02:42:36;;;;;;;120.32;63.90;;;;;;;6.77;100.00;100183.28;5059277;28;20029;-75
2024/03/15 02:45:01;;;;;;;123.85;65.53;;;;;;;6.70;100.00;100166.38;5041924;28;20108;-76
2024/03/15 02:47:27;;;;;;;126.55;65.75;;;;;;;6.86;100.00;100184.84;5043643;28;20034;-75
2024/03/15 02:49:53;;;;;;;126.22;66.50;;;;;;;6.87;100.00;100173.13;5045661;28;20051;-75
2024/03/15 02:52:18;;;;;;;127.13;64.57;;;;;;;6.62;100.00;100142.41;5047137;28;20037;-75
2024/03/15 02:54:44;;;;;;;138.07;68.97;;;;;;;6.75;100.00;100154.06;5045898;28;20063;-75
2024/03/15 02:57:09;;;;;;;119.95;65.07;;;;;;;6.68;100.00;100147.81;5063808;28;20076;-76
2024/03/15 02:59:34;;;;;;;124.43;64.70;;;;;;;6.77;100.00;100151.22;5047648;28;20042;-75
2024/03/15 03:02:00;;;;;;;122.38;65.30;;;;;;;6.79;100.00;100168.72;5029497;28;20037;-75
2024/03/15 03:04:27;;;;;;;122.70;64.63;;;;;;;6.79;100.00;100160.72;5062443;28;20039;-75
2024/03/15 03:06:52;;;;;;;133.23;68.13;;;;;;;6.78;100.00;100169.72;5046106;28;20033;-75
2024/03/15 03:09:18;;;;;;;129.85;66.88;;;;;;;6.78;100.00;100163.56;5062584;28;20455;-75
2024/03/15 03:11:44;;;;;;;138.00;67.32;;;;;;;6.74;100.00;100156.94;5045321;28;20507;-75
2024/03/15 03:14:09;;;;;;;144.20;67.75;;;;;;;6.67;100.00;100148.03;5043326;28;20041;-75
2024/03/15 03:16:35;;;;;;;140.45;68.45;;;;;;;6.59;100.00;100148.97;5040706;28;20040;-75
2024/03/15 03:19:06;;;;;;;131.27;68.50;;;;;;;6.55;100.00;100147.69;5037549;28;20404;-75
2024/03/15 03:21:33;;;;;;;129.98;66.45;;;;;;;6.51;100.00;100139.22;5053895;28;20033;-76
2024/03/15 03:24:00;;;;;;;130.70;66.97;;;;;;;6.46;100.00;100133.63;5054081;28;20553;-75
2024/03/15 03:26:26;;;;;;;127.97;65.55;;;;;;;6.45;100.00;100134.63;5038113;28;20037;-75
2024/03/15 03:28:52;;;;;;;121.05;63.33;;;;;;;6.52;100.00;100146.22;5021052;28;20032;-76
2024/03/15 03:31:17;;;;;;;113.22;61.55;;;;;;;6.46;100.00;100130.13;5038857;28;20026;-75
2024/03/15 03:33:42;;;;;;;120.25;62.65;;;;;;;6.54;100.00;100138.84;5037309;28;20029;-75
2024/03/15 03:36:08;;;;;;;116.20;61.10;;;;;;;6.54;100.00;100130.81;5038738;28;20483;-76
2024/03/15 03:38:33;;;;;;;112.68;59.13;;;;;;;6.50;100.00;100126.88;5037194;28;20081;-75
2024/03/15 03:40:59;;;;;;;121.72;61.15;;;;;;;6.37;100.00;100104.53;5053852;28;20116;-76
2024/03/15 03:43:24;;;;;;;122.50;62.03;;;;;;;6.44;100.00;100116.13;5021104;28;20063;-75
2024/03/15 03:45:50;;;;;;;120.88;59.58;;;;;;;6.53;100.00;100134.53;5037705;28;20129;-74
2024/03/15 03:48:16;;;;;;;116.95;60.22;;;;;;;6.50;100.00;100128.72;5053805;28;20109;-76
2024/03/15 03:50:44;;;;;;;113.07;58.85;;;;;;;6.45;100.00;100120.44;5037289;28;20112;-76
2024/03/15 03:53:10;;;;;;;105.70;54.47;;;;;;;6.49;100.00;100129.72;5020827;28;20029;-75
2024/03/15 03:55:40;;;;;;;108.38;53.50;;;;;;;6.44;100.00;100116.94;5053270;28;20025;-75
2024/03/15 03:58:13;;;;;;;98.70;51.58;;;;;;;6.57;100.00;100126.94;5037173;28;20028;-75
2024/03/15 04:00:38;;;;;;;92.93;52.00;;;;;;;6.59;100.00;100132.94;5020211;28;20056;-76
2024/03/15 04:03:04;;;;;;;113.15;54.28;;;;;;;6.59;100.00;100131.09;5036820;28;20025;-75
2024/03/15 04:05:30;;;;;;;103.50;52.95;;;;;;;6.58;100.00;100126.75;5053593;28;20522;-76
2024/03/15 04:07:56;;;;;;;100.13;51.30;;;;;;;6.57;100.00;100130.44;5038612;28;20026;-75
2024/03/15 04:10:21;;;;;;;103.32;52.45;;;;;;;6.57;100.00;100130.44;5038510;28;20055;-75
2024/03/15 04:12:47;;;;;;;102.82;51.70;;;;;;;6.58;100.00;100132.09;5035477;28;20033;-76
2024/03/15 04:15:14;;;;;;;103.25;51.10;;;;;;;6.53;100.00;100118.47;5036051;28;20120;-76
2024/03/15 04:17:41;;;;;;;98.20;50.35;;;;;;;6.60;100.00;100115.88;5053202;28;20037;-75
2024/03/15 04:20:12;;;;;;;110.55;51.42;;;;;;;6.68;100.00;100121.09;5037395;28;20022;-75
2024/03/15 04:22:45;;;;;;;107.18;51.47;;;;;;;6.62;100.00;100121.03;5052269;28;20033;-75
2024/03/15 04:25:16;;;;;;;115.70;54.63;;;;;;;6.58;100.00;100124.06;5035967;28;20038;-75
2024/03/15 04:27:43;;;;;;;105.40;53.53;;;;;;;6.54;100.00;100128.16;5036287;28;20025;-76
2024/03/15 04:30:16;;;;;;;106.47;54.20;;;;;;;6.52;100.00;100121.31;5035863;28;20566;-76
2024/03/15 04:32:47;;;;;;;119.13;57.03;;;;;;;6.48;100.00;100104.03;5052976;28;20025;-76
2024/03/15 04:35:15;;;;;;;108.72;53.90;;;;;;;6.49;100.00;100117.22;5036216;28;20122;-75
2024/03/15 04:37:41;;;;;;;117.10;56.80;;;;;;;6.47;100.00;100110.38;5039584;28;20025;-75
2024/03/15 04:40:09;;;;;;;114.55;56.45;;;;;;;6.47;100.00;100116.56;5041952;28;20113;-75
2024/03/15 04:42:36;;;;;;;116.22;58.70;;;;;;;6.45;100.00;100099.88;5060001;28;20025;-75
2024/03/15 04:45:06;;;;;;;122.22;60.15;;;;;;;6.48;100.00;100114.72;5049442;28;20037;-75
2024/03/15 04:47:31;;;;;;;124.05;60.17;;;;;;;6.50;100.00;100102.00;5054125;28;20036;-74
2024/03/15 04:49:57;;;;;;;132.05;63.05;;;;;;;6.50;100.00;100100.16;5052535;28;20038;-75
2024/03/15 04:52:22;;;;;;;117.55;60.40;;;;;;;6.49;100.00;100103.00;5052098;28;20055;-75
2024/03/15 04:54:48;;;;;;;130.40;63.25;;;;;;;6.52;100.00;100103.47;5052617;28;20377;-75
2024/03/15 04:57:16;;;;;;;126.55;61.42;;;;;;;6.56;100.00;100094.03;5049957;28;20065;-74
2024/03/15 04:59:41;;;;;;;132.55;63.60;;;;;;;6.51;100.00;100085.75;5028205;28;20053;-75
2024/03/15 05:02:07;;;;;;;137.00;64.78;;;;;;;6.54;100.00;100093.41;5047678;28;20025;-74
2024/03/15 05:04:34;;;;;;;129.90;63.03;;;;;;;6.49;100.00;100073.59;5044649;28;20014;-75
2024/03/15 05:06:59;;;;;;;130.07;63.20;;;;;;;6.61;100.00;100089.97;5030421;28;20439;-75
2024/03/15 05:09:25;;;;;;;123.65;61.38;;;;;;;6.51;100.00;100059.03;5043667;28;20056;-74
2024/03/15 05:11:51;;;;;;;132.23;65.13;;;;;;;6.65;100.00;100083.22;5046820;28;20032;-75
2024/03/15 05:14:16;;;;;;;122.22;63.78;;;;;;;6.67;100.00;100070.50;5045488;28;20144;-75
2024/03/15 05:16:52;;;;;;;124.05;62.67;;;;;;;6.57;100.00;100060.94;5045544;28;20369;-75
2024/03/15 05:19:18;;;;;;;116.85;62.55;;;;;;;6.74;100.00;100072.19;5035816;28;20029;-74
2024/03/15 05:21:43;;;;;;;124.25;63.60;;;;;;;6.76;100.00;100080.88;5035573;28;20412;-76
2024/03/15 05:24:08;;;;;;;129.30;65.50;;;;;;;6.83;100.00;100083.59;5036276;28;20435;-73
2024/03/15 05:26:35;;;;;;;133.57;66.72;;;;;;;6.86;100.00;100082.41;5021690;28;20033;-73
2024/03/15 05:29:00;;;;;;;124.43;65.72;;;;;;;6.89;100.00;100073.97;5047474;28;20031;-72
2024/03/15 05:31:26;;;;;;;127.75;65.20;;;;;;;6.89;100.00;100068.63;5041869;28;20037;-73
2024/03/15 05:33:52;;;;;;;133.18;68.85;;;;;;;6.76;100.00;100043.44;5062538;28;20112;-73
2024/03/15 05:36:19;;;;;;;126.70;67.50;;;;;;;6.65;100.00;100027.06;5023728;28;20127;-74
2024/03/15 05:38:44;;;;;;;142.85;70.22;;;;;;;6.91;100.00;100055.88;5055887;28;20021;-75
2024/03/15 05:41:10;;;;;;;146.30;71.57;;;;;;;6.82;100.00;100044.50;5051354;28;20040;-75
2024/03/15 05:43:35;;;;;;;136.65;70.78;;;;;;;6.93;100.00;100057.34;5035508;28;20040;-75
2024/03/15 05:46:03;;;;;;;144.68;71.28;;;;;;;6.93;100.00;100060.03;5052736;28;20037;-75
2024/03/15 05:48:29;;;;;;;135.43;68.35;;;;;;;6.89;100.00;100044.53;5037023;28;20041;-74
2024/03/15 05:50:54;;;;;;;131.02;66.43;;;;;;;6.96;100.00;100048.94;5067034;28;20037;-76
2024/03/15 05:53:19;;;;;;;140.27;69.50;;;;;;;6.96;100.00;100043.59;5022420;28;20373;-76
2024/03/15 05:55:46;;;;;;;146.40;69.82;;;;;;;6.92;100.00;100030.78;5059985;28;20108;-74
2024/03/15 05:58:12;;;;;;;133.70;66.63;;;;;;;7.00;100.00;100042.19;5049921;28;20022;-75
2024/03/15 06:00:37;;;;;;;135.80;68.50;;;;;;;7.06;100.00;100049.44;5065353;28;20109;-77
2024/03/15 06:03:06;;;;;;;136.55;69.00;;;;;;;7.08;100.00;100057.25;5061649;28;20029;-74
2024/03/15 06:05:32;;;;;;;140.77;67.93;;;;;;;7.09;100.00;100052.75;5054904;28;20082;-74
2024/03/15 06:07:57;;;;;;;129.48;66.00;;;;;;;7.07;100.00;100052.94;5053728;28;20291;-74
2024/03/15 06:10:25;;;;;;;128.77;65.25;;;;;;;6.93;100.00;100027.13;5055245;28;20033;-74
2024/03/15 06:12:51;;;;;;;119.15;62.25;;;;;;;7.15;100.00;100050.13;5054883;28;20029;-74
2024/03/15 06:15:19;;;;;;;123.00;61.55;;;;;;;7.02;100.00;100026.78;5055328;28;20075;-74
2024/03/15 06:17:44;;;;;;;125.80;63.60;;;;;;;7.12;100.00;100037.13;5057009;28;20036;-74
2024/03/15 06:20:10;;;;;;;123.53;60.90;;;;;;;7.15;100.00;100047.44;5056951;28;20033;-74
2024/03/15 06:22:37;;;;;;;114.47;59.08;;;;;;;7.13;100.00;100032.59;5060224;28;20100;-75
2024/03/15 06:25:02;;;;;;;117.95;61.22;;;;;;;7.16;100.00;100048.25;5062688;28;20033;-75
2024/03/15 06:27:28;;;;;;;116.95;58.88;;;;;;;6.78;100.00;99976.38;5046980;28;20029;-78
2024/03/15 06:29:55;;;;;;;108.53;57.60;;;;;;;7.16;100.00;100033.03;5025422;28;20486;-78
2024/03/15 06:32:26;;;;;;;105.28;55.17;;;;;;;7.19;100.00;100029.16;5048404;28;20373;-79
2024/03/15 06:34:53;;;;;;;115.03;58.83;;;;;;;7.16;100.00;100008.97;5052353;28;20036;-76
2024/03/15 06:37:22;;;;;;;108.00;57.60;;;;;;;7.11;100.00;100000.69;5064733;28;20064;-77
2024/03/15 06:40:02;;;;;;;104.15;55.90;;;;;;;7.26;100.00;100013.97;5072077;28;20014;-75
2024/03/15 06:42:35;;;;;;;101.68;55.25;;;;;;;7.18;100.00;100012.25;5057483;28;20021;-75
2024/03/15 06:45:23;;;;;;;108.05;56.15;;;;;;;7.12;100.00;100001.50;5054682;28;20029;-76
2024/03/15 06:47:52;;;;;;;96.45;54.30;;;;;;;7.20;100.00;100018.25;5070254;28;20024;-76
2024/03/15 06:50:30;;;;;;;96.15;51.70;;;;;;;7.20;100.00;100020.09;5072464;28;20037;-76
2024/03/15 06:52:56;;;;;;;96.43;53.33;;;;;;;7.21;100.00;100013.72;5036015;28;20426;-76
2024/03/15 06:55:21;;;;;;;92.80;53.28;;;;;;;7.20;100.00;100006.72;5076266;28;20028;-74
2024/03/15 06:57:48;;;;;;;93.72;52.05;;;;;;;7.15;100.00;99990.41;5072490;28;20017;-76
2024/03/15 07:00:14;;;;;;;89.90;50.75;;;;;;;7.19;100.00;100000.53;5054248;28;20060;-75
2024/03/15 07:02:43;;;;;;;89.35;51.60;;;;;;;7.22;100.00;100000.16;5052508;28;20033;-74
2024/03/15 07:05:13;;;;;;;86.03;49.85;;;;;;;7.22;100.00;100005.50;5031740;28;20431;-74
2024/03/15 07:07:40;;;;;;;85.07;49.13;;;;;;;7.11;100.00;99991.84;5029013;28;20045;-75
2024/03/15 07:10:13;;;;;;;82.07;47.50;;;;;;;7.25;100.00;100007.78;5039780;28;20129;-74
2024/03/15 07:12:39;;;;;;;77.72;45.83;;;;;;;7.17;100.00;99994.53;5048257;28;20404;-75
2024/03/15 07:15:08;;;;;;;78.13;47.42;;;;;;;7.26;100.00;100013.97;5050380;28;20021;-74
2024/03/15 07:17:35;;;;;;;81.93;46.53;;;;;;;7.26;100.00;100011.28;5054214;28;20025;-75
2024/03/15 07:20:03;;;;;;;80.40;47.47;;;;;;;7.30;100.00;100018.72;5034335;28;20781;-74
2024/03/15 07:22:29;;;;;;;74.90;44.47;;;;;;;7.32;100.00;100015.84;5044780;28;20028;-75
2024/03/15 07:24:54;;;;;;;77.95;47.05;;;;;;;7.22;100.00;99988.63;5044469;28;20033;-74
2024/03/15 07:27:20;;;;;;;81.75;47.38;;;;;;;7.30;100.00;100001.81;5053954;28;20107;-74
2024/03/15 07:29:45;;;;;;;78.00;46.58;;;;;;;7.28;100.00;100018.09;5065736;28;20032;-75
2024/03/15 07:32:11;;;;;;;81.78;48.20;;;;;;;7.14;100.00;99991.44;5067233;28;20029;-74
2024/03/15 07:34:37;;;;;;;79.53;48.20;;;;;;;7.26;100.00;100012.09;5066200;28;20033;-76
2024/03/15 07:37:04;;;;;;;85.82;49.45;;;;;;;7.25;100.00;99997.09;5056120;28;20025;-75
2024/03/15 07:39:30;;;;;;;81.78;49.03;;;;;;;7.10;100.00;99976.81;5050143;28;20020;-74
2024/03/15 07:42:01;;;;;;;83.40;48.75;;;;;;;7.23;100.00;100000.97;5033528;28;20112;-74
2024/03/15 07:44:28;;;;;;;82.15;48.20;;;;;;;7.21;100.00;99995.78;5053216;28;20033;-74
2024/03/15 07:46:56;;;;;;;79.57;46.80;;;;;;;7.03;100.00;99976.78;5052815;28;20096;-74
2024/03/15 07:49:24;;;;;;;91.82;48.35;;;;;;;7.15;100.00;99993.09;5049766;28;20057;-74
2024/03/15 07:51:51;;;;;;;80.47;44.97;;;;;;;7.09;100.00;99989.38;5052034;28;20021;-74
2024/03/15 07:54:23;;;;;;;84.80;47.22;;;;;;;7.06;100.00;99990.56;5045273;28;20029;-75
2024/03/15 07:56:49;;;;;;;86.15;47.30;;;;;;;7.03;100.00;99988.28;5040432;28;20036;-74
2024/03/15 07:59:15;;;;;;;83.45;45.70;;;;;;;6.93;100.00;99985.16;5044648;28;20030;-74
2024/03/15 08:01:43;;;;;;;82.75;46.97;;;;;;;6.92;100.00;99980.81;5049642;28;20021;-76
2024/03/15 08:04:09;;;;;;;87.35;46.05;;;;;;;6.85;100.00;99965.72;5060151;28;20033;-74
2024/03/15 08:06:42;;;;;;;84.18;42.67;;;;;;;6.87;100.00;99979.75;5064888;28;20017;-74
2024/03/15 08:09:11;;;;;;;82.40;45.10;;;;;;;6.69;100.00;99948.13;5062671;28;20032;-74
2024/03/15 08:11:37;;;;;;;84.40;46.92;;;;;;;6.75;100.00;99982.13;5044215;28;20098;-74
2024/03/15 08:14:05;;;;;;;86.70;45.78;;;;;;;6.82;100.00;99983.00;5056033;28;20033;-75
2024/03/15 08:16:34;;;;;;;80.57;44.22;;;;;;;6.82;100.00;99980.31;5044567;28;20018;-75
2024/03/15 08:19:10;;;;;;;85.25;44.20;;;;;;;6.85;100.00;99984.44;5040905;28;20060;-74
2024/03/15 08:21:39;;;;;;;83.72;45.47;;;;;;;6.91;100.00;99970.31;5041239;28;20029;-76
2024/03/15 08:24:05;;;;;;;85.53;45.45;;;;;;;6.93;100.00;99957.56;5047902;28;20080;-74
2024/03/15 08:26:32;;;;;;;79.82;44.35;;;;;;;7.03;100.00;99977.59;5024224;28;20497;-75
2024/03/15 08:28:58;;;;;;;88.72;45.53;;;;;;;7.04;100.00;99965.03;5039384;28;20125;-74
2024/03/15 08:31:24;;;;;;;85.35;44.42;;;;;;;7.00;100.00;99948.56;5039294;28;20033;-73
2024/03/15 08:33:50;;;;;;;90.60;47.13;;;;;;;7.19;100.00;99954.22;5020241;28;20075;-75
2024/03/15 08:36:15;;;;;;;83.03;44.78;;;;;;;7.22;100.00;99960.00;5046753;28;20096;-75
2024/03/15 08:38:41;;;;;;;88.00;44.22;;;;;;;7.25;100.00;99946.25;5051734;28;20033;-74
2024/03/15 08:41:07;;;;;;;92.50;44.75;;;;;;;7.37;100.00;99943.81;5062090;28;20030;-74
2024/03/15 08:43:34;;;;;;;86.57;44.22;;;;;;;7.45;100.00;99954.34;5054337;28;20036;-74
2024/03/15 08:45:59;;;;;;;83.90;43.97;;;;;;;7.48;100.00;99962.00;5037995;28;20025;-74
2024/03/15 08:48:30;;;;;;;77.75;42.30;;;;;;;7.39;100.00;99939.09;5051175;28;20029;-73
2024/03/15 08:50:59;;;;;;;83.30;43.28;;;;;;;7.54;100.00;99961.16;5038409;28;20108;-74
2024/03/15 08:53:24;;;;;;;86.93;44.33;;;;;;;7.47;100.00;99946.94;5036273;28;20037;-73
2024/03/15 08:55:51;;;;;;;81.47;41.88;;;;;;;7.53;100.00;99967.56;5036836;28;20040;-74
2024/03/15 08:58:17;;;;;;;85.22;42.05;;;;;;;7.50;100.00;99959.91;5038493;28;20101;-73
2024/03/15 09:00:43;;;;;;;75.28;40.15;;;;;;;7.55;100.00;99962.03;5040346;28;20619;-73
2024/03/15 09:03:09;;;;;;;84.03;42.88;;;;;;;7.58;100.00;99968.81;5041669;28;20057;-73
2024/03/15 09:05:37;;;;;;;64.15;35.97;;;;;;;7.60;100.00;99958.72;5037033;28;20357;-73
2024/03/15 09:08:06;;;;;;;69.28;38.08;;;;;;;7.63;100.00;99969.88;5052205;28;20072;-74
2024/03/15 09:10:32;;;;;;;65.70;38.58;;;;;;;7.65;100.00;99961.63;5049050;28;20112;-74
2024/03/15 09:12:58;;;;;;;68.63;38.28;;;;;;;7.68;100.00;99974.59;5049811;28;20048;-74
2024/03/15 09:15:23;;;;;;;72.35;38.50;;;;;;;7.58;100.00;99947.38;5052178;28;20032;-74
2024/03/15 09:17:50;;;;;;;64.32;36.85;;;;;;;7.77;100.00;99971.53;5045147;28;20079;-75
2024/03/15 09:22:48;;;;;;;63.33;35.58;;;;;;;7.91;100.00;99967.09;5054491;28;20375;-74
2024/03/15 09:25:18;;;;;;;65.18;34.92;;;;;;;7.82;100.00;99938.81;5051813;28;20578;-74
2024/03/15 09:27:53;;;;;;;57.63;32.50;;;;;;;7.93;100.00;99967.69;5041407;28;20017;-74
2024/03/15 09:30:26;;;;;;;59.58;34.45;;;;;;;7.95;100.00;99965.63;5044575;28;20132;-74
2024/03/15 09:32:52;;;;;;;57.58;34.03;;;;;;;7.98;100.00;99975.13;5023622;28;20033;-74
2024/03/15 09:35:19;;;;;;;56.08;32.40;;;;;;;8.03;100.00;99966.47;5046369;28;20079;-74
2024/03/15 09:37:51;;;;;;;58.40;32.92;;;;;;;7.97;100.00;99946.69;5049582;28;20024;-76
2024/03/15 09:40:23;;;;;;;53.33;32.45;;;;;;;8.16;100.00;99969.19;5040488;28;20040;-74
2024/03/15 09:42:52;;;;;;;55.40;32.13;;;;;;;8.26;100.00;99974.97;5036387;28;20061;-74
2024/03/15 09:45:18;;;;;;;49.03;32.20;;;;;;;8.35;100.00;99970.25;5035421;28;20041;-74
2024/03/15 09:47:51;;;;;;;56.05;33.28;;;;;;;8.36;100.00;99975.38;5027271;28;20524;-74
2024/03/15 09:50:21;;;;;;;53.97;32.60;;;;;;;8.45;100.00;99981.41;5037087;28;20060;-75
2024/03/15 09:52:47;;;;;;;46.85;29.90;;;;;;;8.44;100.00;99985.09;5037496;28;20041;-74
2024/03/15 09:55:16;;;;;;;49.20;31.80;;;;;;;8.49;100.00;99982.66;5043364;28;20052;-73
2024/03/15 09:57:43;;;;;;;47.58;29.60;;;;;;;8.58;100.00;99984.09;5064782;28;20013;-74
2024/03/15 10:00:30;;;;;;;45.05;30.83;;;;;;;8.59;100.00;99983.06;5055934;28;20029;-75
2024/03/15 10:02:56;;;;;;;52.45;31.25;;;;;;;8.59;100.00;99984.91;5050233;28;20079;-74
2024/03/15 10:05:22;;;;;;;50.10;30.70;;;;;;;8.69;100.00;99978.09;5050346;28;20048;-74
2024/03/15 10:07:51;;;;;;;45.58;30.13;;;;;;;8.84;100.00;99974.38;5049653;28;20372;-74
2024/03/15 10:10:17;;;;;;;52.58;30.85;;;;;;;8.89;100.00;99980.78;5049759;28;20084;-74
2024/03/15 10:12:50;;;;;;;49.67;31.58;;;;;;;9.00;100.00;99978.47;5049203;28;20142;-73
2024/03/15 10:15:16;;;;;;;48.15;31.38;;;;;;;9.02;100.00;99969.19;5058220;28;20024;-74
2024/03/15 10:17:44;;;;;;;49.25;29.65;;;;;;;9.06;100.00;99975.78;5057916;28;20043;-74
2024/03/15 10:20:21;;;;;;;41.42;28.05;;;;;;;9.03;100.00;99967.34;5046574;28;20049;-74
2024/03/15 10:22:53;;;;;;;46.60;28.33;;;;;;;9.01;100.00;99966.75;5060324;28;20071;-74
2024/03/15 10:25:21;;;;;;;43.05;28.13;;;;;;;8.90;100.00;99939.47;5053622;28;20045;-74
2024/03/15 10:27:54;;;;;;;40.08;27.25;;;;;;;9.05;100.00;99949.19;5038338;28;20045;-74
2024/03/15 10:30:22;;;;;;;38.67;27.17;;;;;;;8.98;100.00;99940.31;5056968;28;20049;-74
2024/03/15 10:32:53;;;;;;;40.53;26.85;;;;;;;8.88;100.00;99912.06;5055143;28;20086;-74
2024/03/15 10:35:21;;;;;;;43.72;26.95;;;;;;;9.25;100.00;99957.19;5055731;28;20036;-76
2024/03/15 10:37:47;;;;;;;38.28;25.90;;;;;;;9.43;100.00;99970.72;5062647;28;20397;-75
2024/03/15 10:40:21;;;;;;;43.55;27.77;;;;;;;9.61;100.00;99975.44;5064117;28;20402;-74
2024/03/15 10:42:53;;;;;;;37.17;26.13;;;;;;;9.57;100.00;99963.44;5065354;28;20032;-74
2024/03/15 10:45:21;;;;;;;38.25;25.27;;;;;;;9.65;100.00;99973.97;5066403;28;20055;-75
2024/03/15 10:47:47;;;;;;;38.70;25.20;;;;;;;9.60;100.00;99963.03;5065039;28;20018;-76
2024/03/15 10:50:17;;;;;;;38.80;24.73;;;;;;;9.53;100.00;99973.78;5051497;28;20025;-74
2024/03/15 10:52:48;;;;;;;33.63;25.42;;;;;;;9.61;100.00;99964.69;5039177;28;20101;-74
2024/03/15 10:55:19;;;;;;;41.55;26.13;;;;;;;9.64;100.00;99965.09;5040660;28;20034;-75
2024/03/15 10:57:47;;;;;;;36.70;25.20;;;;;;;9.23;100.00;99898.31;5037040;28;20026;-74
2024/03/15 11:00:42;;;;;;;36.90;25.88;;;;;;;9.75;100.00;99966.25;5022629;28;20523;-74
2024/03/15 11:03:17;;;;;;;29.00;23.25;;;;;;;9.75;100.00;99947.47;5041904;28;20408;-74
2024/03/15 11:05:43;;;;;;;;;;;;;;;9.84;100.00;99948.88;5038627;28;20073;-74
2024/03/15 11:08:24;;;;;;;35.55;22.92;;;;;;;9.97;100.00;99956.03;5041656;28;20330;-74
2024/03/15 11:10:54;;;;;;;31.10;23.73;;;;;;;10.06;100.00;99959.25;5042286;28;20448;-74